Station History

Weather Underground - logo

Station Historical Data
Daily Summary for February 15, 2018 Units:  Metric    English   Both
« Previous Day
Next Day »
Daily Weekly Monthly Yearly Custom
  High: Low: Average:
Temperature: 17.6 °C 2.4 °C 9.3 °C
Dew Point: 6.1 °C 0.4 °C 3.1 °C
Humidity: 90 % 39 % 68 %
Wind Speed: 7.4 km/h 0 km/h 1 km/h
Wind Gust: 7.4 km/h - -
Wind:- - SW
Pressure: 1026.6 hPa 1020.5 hPa -
Precipitation: 0 mm    
Historical Graphs
 
 
Tabular Data for February 15, 2018
Time Temperature Dew Point Pressure Wind Wind Speed Wind Gust Humidity Rainfall Rate (Hourly)
00:01 5.6 °C 2.6 °C 1020.9 hPa Calm     81 % 0 mm
00:06 5.8 °C 2.6 °C 1020.9 hPa Calm     80 % 0 mm
00:11 5.7 °C 2.6 °C 1020.9 hPa Calm     80 % 0 mm
00:16 5.4 °C 2.3 °C 1020.9 hPa Calm     80 % 0 mm
00:21 5.4 °C 2.3 °C 1020.9 hPa Calm     80 % 0 mm
00:26 5.3 °C 2.2 °C 1020.9 hPa Calm     80 % 0 mm
00:31 5.2 °C 2.4 °C 1020.9 hPa Calm     82 % 0 mm
00:36 5.4 °C 2.4 °C 1020.9 hPa Calm     81 % 0 mm
00:41 5.2 °C 2 °C 1020.9 hPa Calm     80 % 0 mm
00:46 5.1 °C 2.3 °C 1020.9 hPa Calm     82 % 0 mm
00:51 5.1 °C 2.3 °C 1020.9 hPa Calm     82 % 0 mm
00:56 5 °C 2.2 °C 1020.9 hPa Calm     82 % 0 mm
01:01 4.9 °C 2.1 °C 1020.9 hPa Calm     82 % 0 mm
01:06 4.8 °C 2.2 °C 1020.9 hPa Calm     83 % 0 mm
01:11 4.7 °C 2.1 °C 1020.9 hPa Calm     83 % 0 mm
01:16 4.7 °C 2.2 °C 1020.9 hPa Calm     84 % 0 mm
01:21 4.9 °C 2.3 °C 1020.9 hPa Calm     83 % 0 mm
01:26 5.1 °C 2.2 °C 1020.9 hPa Calm     82 % 0 mm
01:31 5.2 °C 2.3 °C 1020.9 hPa Calm     82 % 0 mm
01:37 5.2 °C 2.2 °C 1020.9 hPa Calm     81 % 0 mm
01:42 5.2 °C 2.3 °C 1020.9 hPa Calm     82 % 0 mm
01:47 5.1 °C 2.3 °C 1020.9 hPa Calm     82 % 0 mm
01:52 4.9 °C 1.9 °C 1020.9 hPa Calm     81 % 0 mm
01:57 4.9 °C 2.1 °C 1020.9 hPa Calm     82 % 0 mm
02:02 4.8 °C 1.9 °C 1020.9 hPa Calm     82 % 0 mm
02:07 4.7 °C 1.8 °C 1020.9 hPa Calm     82 % 0 mm
02:12 4.4 °C 1.4 °C 1020.9 hPa Calm     81 % 0 mm
02:17 4.1 °C 1.4 °C 1020.5 hPa Calm     83 % 0 mm
02:22 4.1 °C 1.6 °C 1020.9 hPa Calm     84 % 0 mm
02:27 4.2 °C 1.6 °C 1020.9 hPa Calm     83 % 0 mm
02:32 4.1 °C 1.4 °C 1020.9 hPa Calm     83 % 0 mm
02:37 3.9 °C 1.3 °C 1020.5 hPa Calm     83 % 0 mm
02:42 3.9 °C 1.4 °C 1020.5 hPa Calm     84 % 0 mm
02:47 4.1 °C 1.6 °C 1020.5 hPa Calm     84 % 0 mm
02:52 4.1 °C 1.5 °C 1020.5 hPa Calm     83 % 0 mm
02:57 4.2 °C 1.6 °C 1020.5 hPa Calm     83 % 0 mm
03:02 4.1 °C 1.5 °C 1020.5 hPa Calm     83 % 0 mm
03:07 4.2 °C 1.6 °C 1020.5 hPa Calm     83 % 0 mm
03:12 4.3 °C 1.5 °C 1020.5 hPa Calm     82 % 0 mm
03:17 4.1 °C 1.3 °C 1020.5 hPa Calm     82 % 0 mm
03:22 3.8 °C 1.1 °C 1020.5 hPa Calm     82 % 0 mm
03:27 3.7 °C 1.1 °C 1020.5 hPa Calm     83 % 0 mm
03:32 3.7 °C 1.1 °C 1020.5 hPa Calm     83 % 0 mm
03:37 3.7 °C 1.1 °C 1020.9 hPa Calm     83 % 0 mm
03:42 3.4 °C 1 °C 1020.9 hPa Calm     84 % 0 mm
03:47 3.2 °C 0.7 °C 1020.9 hPa Calm     84 % 0 mm
03:52 3 °C 0.7 °C 1020.9 hPa Calm     85 % 0 mm
03:57 3.1 °C 0.9 °C 1020.9 hPa Calm     86 % 0 mm
04:02 3.2 °C 1.1 °C 1020.9 hPa Calm     86 % 0 mm
04:07 3.1 °C 0.8 °C 1020.9 hPa Calm     85 % 0 mm
04:12 3 °C 0.9 °C 1020.9 hPa Calm     86 % 0 mm
04:17 3.1 °C 0.9 °C 1020.9 hPa Calm     86 % 0 mm
04:22 3 °C 0.9 °C 1020.9 hPa Calm     86 % 0 mm
04:27 2.9 °C 0.8 °C 1020.9 hPa Calm     86 % 0 mm
04:32 2.7 °C 0.4 °C 1020.9 hPa Calm     85 % 0 mm
04:37 2.7 °C 0.7 °C 1020.9 hPa Calm     87 % 0 mm
04:42 2.8 °C 1 °C 1021.2 hPa Calm     88 % 0 mm
04:47 3 °C 1.2 °C 1021.2 hPa Calm     88 % 0 mm
04:52 3 °C 1.1 °C 1021.2 hPa Calm     87 % 0 mm
04:57 2.9 °C 1 °C 1021.2 hPa Calm     87 % 0 mm
05:02 2.8 °C 0.7 °C 1021.2 hPa Calm     86 % 0 mm
05:07 2.7 °C 0.6 °C 1021.2 hPa Calm     86 % 0 mm
05:12 2.6 °C 0.7 °C 1021.2 hPa Calm     87 % 0 mm
05:17 2.7 °C 0.9 °C 1021.6 hPa Calm     88 % 0 mm
05:22 2.7 °C 0.7 °C 1021.6 hPa Calm     87 % 0 mm
05:28 2.7 °C 0.7 °C 1021.6 hPa Calm     87 % 0 mm
05:33 2.9 °C 1.1 °C 1021.6 hPa Calm     88 % 0 mm
05:37 2.9 °C 1 °C 1021.9 hPa Calm     87 % 0 mm
05:42 3.1 °C 1.1 °C 1021.9 hPa Calm     87 % 0 mm
05:48 3.1 °C 0.9 °C 1021.9 hPa Calm     86 % 0 mm
05:53 2.9 °C 0.8 °C 1021.9 hPa Calm     86 % 0 mm
05:58 2.9 °C 0.8 °C 1022.2 hPa Calm     86 % 0 mm
06:03 2.8 °C 0.8 °C 1022.2 hPa West 1.9 km/h 1.9 km/h 87 % 0 mm
06:08 3.2 °C 1.3 °C 1022.2 hPa Calm     87 % 0 mm
06:13 3.5 °C 1.4 °C 1022.2 hPa Calm     86 % 0 mm
06:18 3.7 °C 1.4 °C 1022.2 hPa Calm     85 % 0 mm
06:23 3.8 °C 1.4 °C 1022.6 hPa Calm     84 % 0 mm
06:28 3.9 °C 1.5 °C 1022.6 hPa WNW 1.9 km/h 1.9 km/h 84 % 0 mm
06:33 4.2 °C 1.6 °C 1022.6 hPa Calm     83 % 0 mm
06:38 4.2 °C 1.4 °C 1022.6 hPa Calm     82 % 0 mm
06:43 3.8 °C 0.9 °C 1022.9 hPa NW 1.9 km/h 1.9 km/h 81 % 0 mm
06:48 3.1 °C 0.4 °C 1022.9 hPa Calm     83 % 0 mm
06:53 2.7 °C 0.4 °C 1022.9 hPa Calm     85 % 0 mm
06:58 2.6 °C 0.4 °C 1022.9 hPa Calm     86 % 0 mm
07:03 2.5 °C 0.6 °C 1022.9 hPa Calm     87 % 0 mm
07:08 2.4 °C 0.7 °C 1023.2 hPa Calm     88 % 0 mm
07:13 2.4 °C 0.7 °C 1023.2 hPa Calm     88 % 0 mm
07:18 2.4 °C 0.6 °C 1023.2 hPa Calm     88 % 0 mm
07:23 2.4 °C 0.6 °C 1023.2 hPa North 1.9 km/h 1.9 km/h 88 % 0 mm
07:28 2.4 °C 0.8 °C 1023.6 hPa Calm     89 % 0 mm
07:33 2.4 °C 0.8 °C 1023.6 hPa North 1.9 km/h 1.9 km/h 89 % 0 mm
07:38 2.5 °C 1 °C 1023.6 hPa Calm     90 % 0 mm
07:43 2.7 °C 1.2 °C 1023.6 hPa North 1.9 km/h   90 % 0 mm
07:48 3.3 °C 1.8 °C 1023.6 hPa SE 1.9 km/h 1.9 km/h 90 % 0 mm
07:53 4 °C 2.3 °C 1023.6 hPa ESE 1.9 km/h 1.9 km/h 89 % 0 mm
07:58 4.6 °C 2.6 °C 1023.9 hPa ESE 3.2 km/h 3.2 km/h 87 % 0 mm
08:03 4.9 °C 2.8 °C 1023.9 hPa Calm     86 % 0 mm
08:08 5.4 °C 2.9 °C 1023.9 hPa East 1.9 km/h 1.9 km/h 84 % 0 mm
08:13 5.7 °C 3 °C 1023.9 hPa South 1.9 km/h   83 % 0 mm
08:18 6.1 °C 3.1 °C 1023.9 hPa SE 1.9 km/h 1.9 km/h 81 % 0 mm
08:23 6.6 °C 3.3 °C 1024.3 hPa Calm     80 % 0 mm
08:28 7.1 °C 3.6 °C 1024.3 hPa South 5.6 km/h 5.6 km/h 78 % 0 mm
08:33 7.6 °C 3.6 °C 1024.6 hPa SE 3.7 km/h 3.7 km/h 76 % 0 mm
08:38 8 °C 3.8 °C 1024.6 hPa South 1.9 km/h 1.9 km/h 75 % 0 mm
08:43 8.5 °C 3.9 °C 1024.6 hPa SSE 1.9 km/h 1.9 km/h 73 % 0 mm
08:48 8.9 °C 4.1 °C 1024.6 hPa ESE 1.9 km/h 1.9 km/h 72 % 0 mm
08:53 9.3 °C 4.1 °C 1024.6 hPa West 1.9 km/h 1.9 km/h 70 % 0 mm
08:58 9.3 °C 4.1 °C 1024.6 hPa Calm     70 % 0 mm
09:03 9.2 °C 4.2 °C 1024.6 hPa WNW 1.9 km/h 1.9 km/h 71 % 0 mm
09:08 9.2 °C 4.2 °C 1024.6 hPa West 1.9 km/h 1.9 km/h 71 % 0 mm
09:13 9.4 °C 4.4 °C 1024.9 hPa Calm     71 % 0 mm
09:18 9.7 °C 4.7 °C 1024.9 hPa Calm     71 % 0 mm
09:23 10.1 °C 4.8 °C 1024.9 hPa ESE 1.9 km/h   70 % 0 mm
09:28 10.6 °C 4.9 °C 1024.9 hPa Calm   0.3 km/h 68 % 0 mm
09:33 10.9 °C 5.1 °C 1024.9 hPa Calm     67 % 0 mm
09:38 11.3 °C 5.2 °C 1024.9 hPa Calm     66 % 0 mm
09:43 11.3 °C 4.8 °C 1024.9 hPa Calm     64 % 0 mm
09:48 11.2 °C 4.7 °C 1024.9 hPa Calm     64 % 0 mm
09:53 11.4 °C 5.1 °C 1024.9 hPa Calm     65 % 0 mm
09:58 11.8 °C 5 °C 1024.9 hPa Calm   0.2 km/h 63 % 0 mm
10:03 11.8 °C 5 °C 1024.9 hPa South 1.9 km/h 1.9 km/h 63 % 0 mm
10:08 12.1 °C 4.5 °C 1024.9 hPa Calm     60 % 0 mm
10:13 12.4 °C 4.7 °C 1024.9 hPa ESE 3.2 km/h 3.2 km/h 59 % 0 mm
10:18 12.7 °C 4.8 °C 1024.9 hPa ESE 3.7 km/h 3.7 km/h 59 % 0 mm
10:23 12.8 °C 4.5 °C 1024.9 hPa South 3.7 km/h 3.7 km/h 57 % 0 mm
10:28 13.2 °C 5.6 °C 1024.9 hPa SSW 1.6 km/h 1.6 km/h 60 % 0 mm
10:33 13.4 °C 4.8 °C 1024.9 hPa SSE 4.8 km/h 4.8 km/h 56 % 0 mm
10:38 13.4 °C 4.3 °C 1024.9 hPa NNW 3.7 km/h 3.7 km/h 54 % 0 mm
10:43 13.2 °C 4.1 °C 1024.9 hPa SE 3.7 km/h 3.7 km/h 54 % 0 mm
10:48 13.6 °C 4.2 °C 1024.9 hPa East 3.7 km/h 3.7 km/h 53 % 0 mm
10:53 13.9 °C 3.9 °C 1024.9 hPa SSE 1.9 km/h   51 % 0 mm
10:58 14 °C 4.3 °C 1024.9 hPa NE 3.7 km/h 3.7 km/h 52 % 0 mm
11:03 14.1 °C 4.7 °C 1024.9 hPa South 3.7 km/h 3.7 km/h 53 % 0 mm
11:08 14.3 °C 5.1 °C 1024.9 hPa SSW 3.2 km/h 3.2 km/h 54 % 0 mm
11:13 14.4 °C 4.4 °C 1024.9 hPa NNW 5.6 km/h 5.6 km/h 51 % 0 mm
11:18 14.4 °C 4.7 °C 1024.9 hPa West 1.9 km/h   52 % 0 mm
11:23 14.6 °C 5.1 °C 1024.9 hPa SSE 7.4 km/h 7.4 km/h 53 % 0 mm
11:28 14.5 °C 4.5 °C 1024.9 hPa West 1.9 km/h   51 % 0 mm
11:33 14.4 °C 4.4 °C 1024.9 hPa NW 5.6 km/h 5.6 km/h 51 % 0 mm
11:38 14.4 °C 5.2 °C 1024.6 hPa SSW 6.4 km/h 6.4 km/h 54 % 0 mm
11:43 14.4 °C 4.7 °C 1024.6 hPa WNW 5.6 km/h 5.6 km/h 52 % 0 mm
11:48 14.6 °C 5.3 °C 1024.6 hPa South 5.6 km/h 5.6 km/h 54 % 0 mm
11:53 15.3 °C 5.7 °C 1024.6 hPa NW 5.6 km/h 5.6 km/h 53 % 0 mm
11:58 15.4 °C 4.7 °C 1024.3 hPa East 1.9 km/h   49 % 0 mm
12:03 15.2 °C 4.8 °C 1024.3 hPa Calm     50 % 0 mm
12:08 15.4 °C 5.3 °C 1024.3 hPa SW 1.9 km/h 1.9 km/h 51 % 0 mm
12:13 15.7 °C 5 °C 1024.3 hPa NW 1.9 km/h 1.9 km/h 49 % 0 mm
12:18 16 °C 5.3 °C 1024.3 hPa SSE 5.6 km/h 5.6 km/h 49 % 0 mm
12:23 16.2 °C 5.4 °C 1023.9 hPa Calm     49 % 0 mm
12:28 16.3 °C 4.9 °C 1023.9 hPa WNW 1.9 km/h 1.9 km/h 47 % 0 mm
12:33 16.2 °C 5.1 °C 1023.9 hPa SSW 3.7 km/h 3.7 km/h 48 % 0 mm
12:38 16.6 °C 5.5 °C 1023.9 hPa WNW 1.9 km/h 1.9 km/h 48 % 0 mm
12:44 16.3 °C 4.6 °C 1023.9 hPa South 3.2 km/h 3.2 km/h 46 % 0 mm
12:49 16.3 °C 4.7 °C 1023.6 hPa SE 1.9 km/h   46 % 0 mm
12:54 16.4 °C 5.1 °C 1023.6 hPa Calm     47 % 0 mm
12:59 16.2 °C 5.2 °C 1023.6 hPa SSE 5.6 km/h 5.6 km/h 48 % 0 mm
13:04 16.6 °C 4.9 °C 1023.6 hPa ESE 3.7 km/h 3.7 km/h 46 % 0 mm
13:09 16.6 °C 4.9 °C 1023.6 hPa South 5.6 km/h 5.6 km/h 46 % 0 mm
13:14 16.5 °C 5.2 °C 1023.6 hPa South 3.7 km/h 3.7 km/h 47 % 0 mm
13:19 16.4 °C 4.2 °C 1023.2 hPa SE 3.7 km/h 3.7 km/h 44 % 0 mm
13:24 16.7 °C 5 °C 1023.2 hPa Calm     46 % 0 mm
13:29 16.9 °C 4.9 °C 1023.2 hPa North 3.7 km/h 3.7 km/h 45 % 0 mm
13:34 16.8 °C 5.7 °C 1023.2 hPa Calm     48 % 0 mm
13:39 16.5 °C 4.8 °C 1023.2 hPa South 1.9 km/h   46 % 0 mm
13:44 16.7 °C 4.7 °C 1023.2 hPa NW 3.7 km/h 3.7 km/h 45 % 0 mm
13:49 16.6 °C 5.5 °C 1022.9 hPa Calm   0.2 km/h 48 % 0 mm
13:54 16.9 °C 5.2 °C 1022.9 hPa Calm     46 % 0 mm
13:59 17.3 °C 5.3 °C 1022.9 hPa SE 5.6 km/h 5.6 km/h 45 % 0 mm
14:04 17.5 °C 6.1 °C 1022.9 hPa Calm     47 % 0 mm
14:09 17.4 °C 4.7 °C 1022.9 hPa WNW 3.2 km/h 3.2 km/h 43 % 0 mm
14:14 17 °C 4.9 °C 1022.9 hPa SE 1.9 km/h   45 % 0 mm
14:19 16.8 °C 4.2 °C 1022.9 hPa WNW 3.7 km/h 3.7 km/h 43 % 0 mm
14:24 16.8 °C 4.4 °C 1022.9 hPa NW 1.9 km/h 1.9 km/h 44 % 0 mm
14:29 16.9 °C 4.6 °C 1022.9 hPa WNW 1.9 km/h   44 % 0 mm
14:34 16.9 °C 3.9 °C 1022.9 hPa Calm     42 % 0 mm
14:39 16.9 °C 3.9 °C 1022.6 hPa SW 1.9 km/h   42 % 0 mm
14:44 17.1 °C 4.1 °C 1022.6 hPa Calm     42 % 0 mm
14:49 17.2 °C 4.5 °C 1022.6 hPa NW 3.7 km/h 3.7 km/h 43 % 0 mm
14:54 17.3 °C 4.3 °C 1022.6 hPa Calm     42 % 0 mm
14:59 17.4 °C 4.7 °C 1022.6 hPa SE 1.9 km/h 1.9 km/h 43 % 0 mm
15:04 17.6 °C 4.2 °C 1022.6 hPa Calm     41 % 0 mm
15:09 17.4 °C 4.1 °C 1022.6 hPa NW 5.6 km/h 5.6 km/h 41 % 0 mm
15:14 17.3 °C 4.6 °C 1022.6 hPa NW 1.9 km/h 1.9 km/h 43 % 0 mm
15:19 17.2 °C 4.2 °C 1022.6 hPa Calm   0.2 km/h 42 % 0 mm
15:24 17.2 °C 4.5 °C 1022.6 hPa Calm     43 % 0 mm
15:29 17.3 °C 4.2 °C 1022.6 hPa NW 1.9 km/h   42 % 0 mm
15:34 17.2 °C 4.2 °C 1022.6 hPa NW 3.7 km/h 3.7 km/h 42 % 0 mm
15:39 17.1 °C 4.4 °C 1022.6 hPa NW 1.9 km/h 1.9 km/h 43 % 0 mm
15:44 17.1 °C 4.4 °C 1022.6 hPa NW 1.9 km/h 1.9 km/h 43 % 0 mm
15:49 17.2 °C 3.8 °C 1022.6 hPa Calm     41 % 0 mm
15:54 17.2 °C 4.1 °C 1022.6 hPa Calm     42 % 0 mm
15:59 17.1 °C 3.7 °C 1022.6 hPa NW 5.6 km/h 5.6 km/h 41 % 0 mm
16:04 17.1 °C 3.7 °C 1022.6 hPa NW 5.6 km/h 5.6 km/h 41 % 0 mm
16:09 17 °C 3.7 °C 1022.6 hPa NNW 1.9 km/h 1.9 km/h 41 % 0 mm
16:14 17.1 °C 3.7 °C 1022.6 hPa NW 3.7 km/h 3.7 km/h 41 % 0 mm
16:19 17.1 °C 3.3 °C 1022.6 hPa North 3.7 km/h 3.7 km/h 40 % 0 mm
16:24 17 °C 2.9 °C 1022.6 hPa WNW 3.7 km/h 3.7 km/h 39 % 0 mm
16:29 16.9 °C 2.9 °C 1022.6 hPa NW 1.9 km/h   39 % 0 mm
16:34 16.8 °C 2.8 °C 1022.9 hPa NW 5.6 km/h 5.6 km/h 39 % 0 mm
16:39 16.7 °C 3.1 °C 1022.9 hPa NW 7.4 km/h 7.4 km/h 40 % 0 mm
16:44 16.6 °C 2.9 °C 1022.9 hPa NW 3.7 km/h 3.7 km/h 40 % 0 mm
16:49 16.5 °C 3.2 °C 1022.9 hPa WNW 3.7 km/h 3.7 km/h 41 % 0 mm
16:54 16.4 °C 3.8 °C 1022.9 hPa WNW 1.9 km/h 1.9 km/h 43 % 0 mm
16:59 16.4 °C 3.4 °C 1022.9 hPa NNW 3.7 km/h 3.7 km/h 42 % 0 mm
17:04 16.3 °C 3.1 °C 1022.9 hPa NW 3.7 km/h 3.7 km/h 41 % 0 mm
17:09 16.2 °C 3.3 °C 1022.9 hPa NW 1.9 km/h   42 % 0 mm
17:14 16.1 °C 3.2 °C 1023.2 hPa NW 1.9 km/h 1.9 km/h 42 % 0 mm
17:19 16 °C 3.1 °C 1023.2 hPa Calm   0.5 km/h 42 % 0 mm
17:24 15.9 °C 3.3 °C 1023.2 hPa Calm     43 % 0 mm
17:29 15.7 °C 3.2 °C 1023.2 hPa Calm     43 % 0 mm
17:34 15.5 °C 3.3 °C 1023.2 hPa Calm     44 % 0 mm
17:39 15.2 °C 3.7 °C 1023.2 hPa Calm     46 % 0 mm
17:44 14.8 °C 3.9 °C 1023.2 hPa Calm     48 % 0 mm
17:49 14.3 °C 3.8 °C 1023.2 hPa Calm     49 % 0 mm
17:54 13.9 °C 3.9 °C 1023.2 hPa Calm     51 % 0 mm
18:00 13.5 °C 3.6 °C 1023.2 hPa Calm     51 % 0 mm
18:05 13.2 °C 3.5 °C 1023.6 hPa Calm     52 % 0 mm
18:09 12.9 °C 3.6 °C 1023.6 hPa Calm     53 % 0 mm
18:15 12.8 °C 3.7 °C 1023.6 hPa Calm     54 % 0 mm
18:20 12.5 °C 3.7 °C 1023.6 hPa Calm     55 % 0 mm
18:25 12.2 °C 3.7 °C 1023.6 hPa Calm     56 % 0 mm
18:30 11.9 °C 3.9 °C 1023.9 hPa Calm     58 % 0 mm
18:35 11.7 °C 3.9 °C 1023.9 hPa Calm     59 % 0 mm
18:40 11.6 °C 4.1 °C 1023.9 hPa Calm     60 % 0 mm
18:45 11.3 °C 3.8 °C 1023.9 hPa Calm     60 % 0 mm
18:50 11.1 °C 4.1 °C 1023.9 hPa Calm     62 % 0 mm
18:55 10.9 °C 3.9 °C 1023.9 hPa Calm     62 % 0 mm
19:00 10.8 °C 4 °C 1024.3 hPa Calm     63 % 0 mm
19:05 10.9 °C 4.1 °C 1024.3 hPa Calm     63 % 0 mm
19:10 10.8 °C 4 °C 1024.3 hPa Calm     63 % 0 mm
19:15 10.6 °C 3.8 °C 1024.3 hPa Calm     63 % 0 mm
19:20 10.5 °C 3.9 °C 1024.3 hPa Calm     64 % 0 mm
19:25 10.5 °C 4.2 °C 1024.3 hPa Calm     65 % 0 mm
19:30 10.3 °C 4.1 °C 1024.3 hPa Calm     65 % 0 mm
19:35 10.2 °C 3.9 °C 1024.3 hPa Calm     65 % 0 mm
19:40 10.1 °C 4 °C 1024.3 hPa Calm     66 % 0 mm
19:45 9.8 °C 4.2 °C 1024.3 hPa Calm     68 % 0 mm
19:50 9.6 °C 4 °C 1024.3 hPa Calm     68 % 0 mm
19:55 9.4 °C 4.4 °C 1024.3 hPa Calm     71 % 0 mm
20:00 9.3 °C 4.3 °C 1024.6 hPa Calm     71 % 0 mm
20:05 9.2 °C 4.4 °C 1024.6 hPa Calm     72 % 0 mm
20:10 9.2 °C 4 °C 1024.6 hPa Calm     70 % 0 mm
20:15 8.9 °C 3.9 °C 1024.6 hPa Calm     71 % 0 mm
20:20 8.8 °C 4 °C 1024.6 hPa Calm     72 % 0 mm
20:25 8.6 °C 4.2 °C 1024.6 hPa Calm     74 % 0 mm
20:30 8.2 °C 3.7 °C 1024.6 hPa Calm     73 % 0 mm
20:35 7.8 °C 3.7 °C 1024.6 hPa Calm     75 % 0 mm
20:40 7.6 °C 3.7 °C 1024.9 hPa Calm     76 % 0 mm
20:45 7.6 °C 3.6 °C 1024.9 hPa Calm     76 % 0 mm
20:50 7.4 °C 3.7 °C 1024.9 hPa Calm     77 % 0 mm
20:55 7.3 °C 3.6 °C 1024.9 hPa Calm     77 % 0 mm
21:00 7.2 °C 3.4 °C 1024.9 hPa Calm     77 % 0 mm
21:06 7.2 °C 3.8 °C 1025.3 hPa Calm     79 % 0 mm
21:11 7.1 °C 3.7 °C 1025.3 hPa Calm     79 % 0 mm
21:16 7.2 °C 3.6 °C 1025.3 hPa Calm     78 % 0 mm
21:21 7.2 °C 3.6 °C 1025.3 hPa Calm     78 % 0 mm
21:26 7.1 °C 3.6 °C 1025.3 hPa Calm     78 % 0 mm
21:31 6.9 °C 3.4 °C 1025.6 hPa Calm     78 % 0 mm
21:36 6.9 °C 3.3 °C 1025.6 hPa Calm     78 % 0 mm
21:41 6.8 °C 3.3 °C 1025.6 hPa Calm     78 % 0 mm
21:46 6.7 °C 3.2 °C 1026 hPa Calm     78 % 0 mm
21:51 6.7 °C 3.1 °C 1026 hPa Calm     78 % 0 mm
21:56 6.6 °C 3.1 °C 1026 hPa Calm     78 % 0 mm
22:01 6.4 °C 3.1 °C 1026 hPa Calm     79 % 0 mm
22:06 6.4 °C 3.2 °C 1026 hPa Calm     80 % 0 mm
22:11 6.6 °C 3.2 °C 1026 hPa Calm     79 % 0 mm
22:16 6.6 °C 3.2 °C 1026 hPa Calm     79 % 0 mm
22:21 6.3 °C 2.9 °C 1026 hPa Calm     79 % 0 mm
22:26 6.4 °C 3 °C 1026 hPa Calm     79 % 0 mm
22:31 6.3 °C 2.8 °C 1026 hPa Calm     78 % 0 mm
22:36 6.3 °C 2.7 °C 1026.3 hPa Calm     78 % 0 mm
22:41 6.2 °C 2.7 °C 1026.3 hPa Calm     78 % 0 mm
22:46 6.1 °C 2.7 °C 1026.3 hPa Calm     79 % 0 mm
22:51 5.9 °C 2.8 °C 1026.3 hPa Calm     80 % 0 mm
22:56 5.8 °C 2.8 °C 1026.3 hPa Calm     81 % 0 mm
23:01 5.8 °C 2.8 °C 1026.3 hPa Calm     81 % 0 mm
23:06 5.7 °C 2.7 °C 1026.3 hPa Calm     81 % 0 mm
23:11 5.5 °C 2.5 °C 1026.3 hPa Calm     81 % 0 mm
23:16 5.4 °C 2.4 °C 1026.3 hPa Calm     81 % 0 mm
23:21 5.3 °C 2.5 °C 1026.3 hPa Calm     82 % 0 mm
23:26 5.2 °C 2.3 °C 1026.6 hPa Calm     82 % 0 mm
23:31 5.1 °C 2.4 °C 1026.6 hPa Calm     83 % 0 mm
23:36 5.1 °C 2.4 °C 1026.6 hPa Calm     83 % 0 mm
23:41 5 °C 2.3 °C 1026.6 hPa Calm     83 % 0 mm
23:46 4.9 °C 2.3 °C 1026.6 hPa Calm     83 % 0 mm
23:51 4.9 °C 2.4 °C 1026.6 hPa Calm     84 % 0 mm
23:56 4.9 °C 2.4 °C 1026.6 hPa Calm     84 % 0 mm
Park Place, Exeter, Tulare County, California, USA
Compliments of Weather Underground - 2.75 mb